Time;durP1;ratioP1;P1;durP2;ratioP2;P2;SDS_P1;SDS_P2;PMS_P1;PMS_P2;Temp;Humidity;BMP_temperature;BMP_pressure;BME280_temperature;BME280_humidity;BME280_pressure;Samples;Min_cycle;Max_cycle;Signal;HPM_P1;HPM_P2
2022/05/09 00:01:25;;;;;;;;;12.00;10.33;;;;;18.86;48.82;102167.53;5044615;28;45368;-81
2022/05/09 00:03:50;;;;;;;;;12.33;11.00;;;;;18.83;48.58;102167.72;5058434;28;45449;-81
2022/05/09 00:06:16;;;;;;;;;11.67;9.67;;;;;18.86;48.49;102172.09;5037774;28;48599;-81
2022/05/09 00:08:42;;;;;;;;;10.00;10.00;;;;;18.81;48.44;102160.66;5050904;28;45365;-81
2022/05/09 00:11:11;;;;;;;;;11.67;10.00;;;;;18.65;48.31;102137.16;5057474;28;45511;-81
2022/05/09 00:13:37;;;;;;;;;12.33;10.67;;;;;18.82;47.81;102178.59;5049970;28;45494;-81
2022/05/09 00:16:04;;;;;;;;;13.00;11.33;;;;;18.54;47.80;102123.38;5057190;28;46010;-81
2022/05/09 00:18:30;;;;;;;;;8.00;6.00;;;;;18.77;48.03;102173.47;5040000;28;45566;-81
2022/05/09 00:20:55;;;;;;;;;7.00;7.00;;;;;18.59;48.30;102142.94;5038364;28;45709;-81
2022/05/09 00:23:21;;;;;;;;;7.00;7.00;;;;;18.74;47.65;102171.78;5037092;28;45363;-81
2022/05/09 00:25:46;;;;;;;;;7.67;7.67;;;;;18.66;47.59;102162.34;5036286;28;46283;-81
2022/05/09 00:28:12;;;;;;;;;7.33;7.33;;;;;18.69;47.44;102154.09;5036853;28;45300;-81
2022/05/09 00:30:37;;;;;;;;;8.33;8.33;;;;;18.62;47.59;102149.97;5037100;28;45362;-81
2022/05/09 00:33:03;;;;;;;;;8.67;8.00;;;;;18.70;47.71;102169.31;5035262;28;45448;-81
2022/05/09 00:35:28;;;;;;;;;7.67;7.67;;;;;18.52;47.21;102136.13;5051958;28;45996;-81
2022/05/09 00:37:53;;;;;;;;;6.33;5.33;;;;;18.50;47.70;102140.72;5019078;28;45828;-81
2022/05/09 00:40:19;;;;;;;;;6.00;6.00;;;;;18.60;47.03;102155.47;5042256;28;45423;-81
2022/05/09 00:42:48;;;;;;;;;8.00;7.00;;;;;18.61;47.15;102165.28;5037728;28;45437;-81
2022/05/09 00:45:14;;;;;;;;;7.00;7.00;;;;;18.60;46.56;102160.00;5019112;28;47455;-81
2022/05/09 00:47:39;;;;;;;;;5.33;5.33;;;;;18.55;47.22;102162.94;5037220;28;45300;-81
2022/05/09 00:50:07;;;;;;;;;7.00;7.00;;;;;18.54;47.01;102155.78;5036636;28;45528;-81
2022/05/09 00:52:40;;;;;;;;;8.33;8.33;;;;;18.50;47.09;102159.63;5037329;28;45376;-81
2022/05/09 00:55:09;;;;;;;;;7.00;6.67;;;;;18.44;46.98;102154.56;5032329;28;45490;-81
2022/05/09 00:57:43;;;;;;;;;9.00;6.67;;;;;18.19;47.34;102111.81;5036939;28;45556;-81
2022/05/09 01:00:13;;;;;;;;;7.67;6.33;;;;;18.39;47.12;102151.22;5037072;28;45703;-81
2022/05/09 01:02:43;;;;;;;;;6.00;5.67;;;;;18.38;47.15;102154.88;5036166;28;45450;-81
2022/05/09 01:05:12;;;;;;;;;6.33;5.00;;;;;18.39;46.98;102167.44;5035944;28;46324;-81
2022/05/09 01:07:39;;;;;;;;;6.67;6.67;;;;;18.34;47.85;102164.97;5037111;28;46334;-81
2022/05/09 01:10:05;;;;;;;;;8.00;7.00;;;;;18.07;47.77;102118.72;5056902;28;45322;-81
2022/05/09 01:12:33;;;;;;;;;8.33;7.67;;;;;18.21;47.57;102147.69;5057028;28;45689;-81
2022/05/09 01:15:03;;;;;;;;;7.00;5.67;;;;;18.23;47.43;102154.75;5037575;28;46708;-81
2022/05/09 01:17:29;;;;;;;;;2.67;2.67;;;;;18.17;47.69;102163.19;5035593;28;45381;-81
2022/05/09 01:19:58;;;;;;;;;7.67;6.00;;;;;18.12;47.83;102158.03;5056689;28;45544;-81
2022/05/09 01:22:26;;;;;;;;;6.00;6.00;;;;;18.07;47.89;102162.78;5038905;28;45570;-80
2022/05/09 01:24:53;;;;;;;;;8.33;5.00;;;;;17.93;47.96;102149.13;5036526;28;46165;-81
2022/05/09 01:27:18;;;;;;;;;8.67;6.00;;;;;17.99;48.00;102156.91;5035961;28;45421;-81
2022/05/09 01:29:59;;;;;;;;;4.00;4.00;;;;;17.90;48.17;102152.00;5036294;28;45415;-81
2022/05/09 01:32:32;;;;;;;;;5.00;5.00;;;;;17.76;48.27;102131.09;5047618;28;45554;-81
2022/05/09 01:35:07;;;;;;;;;4.00;3.33;;;;;17.79;48.10;102140.84;5045020;28;45433;-81
2022/05/09 01:37:35;;;;;;;;;7.00;5.00;;;;;17.72;48.17;102143.00;5035835;28;45403;-81
2022/05/09 01:40:00;;;;;;;;;5.00;4.00;;;;;17.80;48.52;102158.81;5036383;28;45386;-81
2022/05/09 01:42:25;;;;;;;;;8.33;7.67;;;;;17.67;48.39;102145.06;5036130;28;45402;-81
2022/05/09 01:44:52;;;;;;;;;4.00;4.00;;;;;17.75;48.76;102164.44;5036290;28;45969;-81
2022/05/09 01:50:01;;;;;;;;;5.67;4.33;;;;;17.70;48.25;102158.41;5056362;28;45484;-81
2022/05/09 01:52:26;;;;;;;;;5.67;5.67;;;;;17.67;48.42;102154.03;5055314;28;45502;-81
2022/05/09 01:54:52;;;;;;;;;4.00;4.00;;;;;17.57;48.04;102139.28;5035010;28;45927;-81
2022/05/09 01:57:17;;;;;;;;;3.00;3.00;;;;;17.45;48.52;102123.72;5017532;28;45543;-81
2022/05/09 01:59:43;;;;;;;;;4.00;3.00;;;;;17.51;48.48;102153.94;5042956;28;45492;-81
2022/05/09 02:02:20;;;;;;;;;8.00;4.00;;;;;17.50;48.82;102157.56;5039236;28;45414;-81
2022/05/09 02:04:46;;;;;;;;;7.00;7.00;;;;;17.48;48.96;102159.47;5055639;28;48038;-80
2022/05/09 02:07:15;;;;;;;;;10.33;8.33;;;;;17.45;49.56;102156.06;5055614;28;45357;-80
2022/05/09 02:09:43;;;;;;;;;6.67;4.00;;;;;17.35;50.19;102142.19;5056093;28;45376;-80
2022/05/09 02:12:10;;;;;;;;;11.00;9.33;;;;;17.31;50.36;102140.59;5039596;28;45421;-81
2022/05/09 02:14:36;;;;;;;;;9.67;9.67;;;;;17.20;50.64;102127.63;5038894;28;45350;-81
2022/05/09 02:17:02;;;;;;;;;12.33;11.67;;;;;17.27;50.37;102139.84;5039080;28;45394;-81
2022/05/09 02:19:28;;;;;;;;;12.00;10.67;;;;;17.33;50.94;102146.78;5059612;28;45449;-81
2022/05/09 02:21:53;;;;;;;;;9.33;8.33;;;;;17.29;51.03;102148.75;5041205;28;45550;-81
2022/05/09 02:24:19;;;;;;;;;10.00;8.67;;;;;17.19;50.95;102139.38;5059392;28;45643;-81
2022/05/09 02:26:45;;;;;;;;;6.00;6.00;;;;;17.25;50.83;102155.22;5059251;28;45461;-81
2022/05/09 02:29:10;;;;;;;;;11.00;9.67;;;;;17.22;50.80;102152.69;5043037;28;45473;-81
2022/05/09 02:31:35;;;;;;;;;9.33;9.33;;;;;17.04;51.07;102130.22;5054248;28;45736;-81
2022/05/09 02:34:01;;;;;;;;;15.00;8.67;;;;;17.14;51.30;102140.53;5059022;28;45397;-81
2022/05/09 02:36:27;;;;;;;;;10.33;9.67;;;;;17.19;51.02;102157.38;5059145;28;45474;-81
2022/05/09 02:38:53;;;;;;;;;6.67;5.33;;;;;17.14;50.94;102154.91;5052455;28;45359;-81
2022/05/09 02:41:18;;;;;;;;;10.33;10.33;;;;;17.09;50.97;102152.44;5039042;28;45900;-81
2022/05/09 02:43:44;;;;;;;;;12.00;8.67;;;;;17.07;51.07;102139.97;5045823;28;45824;-81
2022/05/09 02:46:09;;;;;;;;;9.33;8.67;;;;;17.08;51.31;102145.28;5041641;28;45528;-81
2022/05/09 02:48:36;;;;;;;;;9.67;9.33;;;;;17.02;51.11;102140.19;5055738;28;45829;-81
2022/05/09 02:51:04;;;;;;;;;9.33;8.33;;;;;16.99;51.54;102144.84;5059214;28;45446;-81
2022/05/09 02:53:30;;;;;;;;;9.00;7.67;;;;;16.72;51.58;102101.25;5058896;28;45476;-81
2022/05/09 02:55:55;;;;;;;;;8.33;8.33;;;;;16.80;51.44;102110.72;5043636;28;45399;-81
2022/05/09 02:58:20;;;;;;;;;9.67;8.67;;;;;16.60;51.26;102086.53;5036589;28;45454;-81
2022/05/09 03:00:46;;;;;;;;;9.67;9.33;;;;;16.95;51.55;102141.44;5031864;28;45450;-80
2022/05/09 03:05:57;;;;;;;;;10.67;8.67;;;;;16.88;51.69;102135.47;5038004;28;45577;-81
2022/05/09 03:08:23;;;;;;;;;6.00;5.33;;;;;16.83;51.85;102129.44;5038849;28;45546;-81
2022/05/09 03:10:48;;;;;;;;;8.33;8.33;;;;;16.84;51.82;102135.69;5020857;28;45295;-80
2022/05/09 03:13:14;;;;;;;;;10.67;8.33;;;;;16.81;51.74;102138.50;5038635;28;46540;-80
2022/05/09 03:15:42;;;;;;;;;11.33;9.33;;;;;16.79;52.26;102135.91;5057249;28;45429;-81
2022/05/09 03:18:08;;;;;;;;;10.00;8.67;;;;;16.78;51.99;102135.94;5047228;28;45406;-81
2022/05/09 03:20:34;;;;;;;;;6.00;6.00;;;;;16.76;51.82;102130.63;5038958;28;45331;-81
2022/05/09 03:23:02;;;;;;;;;11.33;10.33;;;;;16.75;51.77;102126.19;5038406;28;45462;-81
2022/05/09 03:25:28;;;;;;;;;8.33;8.33;;;;;16.66;51.99;102116.72;5037231;28;45493;-81
2022/05/09 03:27:53;;;;;;;;;9.00;7.33;;;;;16.64;52.29;102125.81;5038005;28;45436;-81
2022/05/09 03:30:19;;;;;;;;;8.33;8.33;;;;;16.72;51.73;102134.44;5038267;28;45435;-81
2022/05/09 03:32:45;;;;;;;;;11.67;10.00;;;;;16.66;51.55;102130.19;5038449;28;46064;-81
2022/05/09 03:35:11;;;;;;;;;7.67;7.33;;;;;16.57;51.73;102108.22;5058388;28;45558;-81
2022/05/09 03:37:37;;;;;;;;;9.33;8.33;;;;;16.56;52.19;102117.25;5058390;28;45296;-81
2022/05/09 03:40:04;;;;;;;;;10.67;7.67;;;;;16.37;51.90;102093.88;5048436;28;45347;-81
2022/05/09 03:42:30;;;;;;;;;9.00;9.00;;;;;16.42;52.25;102115.19;5000308;28;47122;-81
2022/05/09 03:44:55;;;;;;;;;9.00;8.33;;;;;16.46;52.08;102131.13;5017701;28;45355;-81
2022/05/09 03:47:20;;;;;;;;;10.33;8.33;;;;;16.39;52.24;102120.72;5017339;28;45528;-81
2022/05/09 03:49:46;;;;;;;;;9.33;6.00;;;;;16.37;52.46;102128.00;5017163;28;45573;-81
2022/05/09 03:52:11;;;;;;;;;10.67;7.67;;;;;16.38;52.51;102122.53;5018104;28;46212;-81
2022/05/09 03:54:36;;;;;;;;;9.00;7.33;;;;;16.44;52.49;102142.91;5010722;28;45437;-80
2022/05/09 03:57:02;;;;;;;;;8.67;7.00;;;;;16.29;52.33;102116.69;5006817;28;45319;-81
2022/05/09 03:59:28;;;;;;;;;5.33;5.33;;;;;16.37;52.48;102134.25;5001145;28;45335;-80
2022/05/09 04:01:54;;;;;;;;;10.67;8.00;;;;;16.34;52.84;102131.72;4998613;28;45391;-80
2022/05/09 04:04:20;;;;;;;;;8.00;5.33;;;;;16.16;52.79;102106.50;5011242;28;45487;-81
2022/05/09 04:06:45;;;;;;;;;7.00;5.67;;;;;16.30;53.08;102132.78;5017888;28;45748;-81
2022/05/09 04:09:10;;;;;;;;;7.00;5.67;;;;;16.22;53.10;102119.69;5018242;28;45719;-80
2022/05/09 04:11:36;;;;;;;;;9.33;7.67;;;;;16.23;52.83;102134.88;5008122;28;46317;-80
2022/05/09 04:14:01;;;;;;;;;9.33;6.67;;;;;16.13;52.85;102119.19;5009119;28;45360;-80
2022/05/09 04:19:11;;;;;;;;;8.00;8.00;;;;;16.11;52.97;102116.59;4998271;28;45272;-80
2022/05/09 04:21:36;;;;;;;;;9.00;8.00;;;;;16.16;52.94;102122.66;5001227;28;45319;-80
2022/05/09 04:24:02;;;;;;;;;9.67;8.67;;;;;16.02;53.55;102114.31;4996732;28;45338;-80
2022/05/09 04:26:31;;;;;;;;;6.67;5.00;;;;;15.93;53.48;102090.53;4978431;28;45535;-80
2022/05/09 04:28:56;;;;;;;;;11.33;8.67;;;;;16.07;53.61;102120.38;5009851;28;45414;-80
2022/05/09 04:31:24;;;;;;;;;5.00;5.00;;;;;15.96;53.47;102104.69;4976510;28;46314;-80
2022/05/09 04:33:50;;;;;;;;;7.33;7.33;;;;;16.07;53.28;102122.19;4999735;28;45502;-82
2022/05/09 04:36:16;;;;;;;;;10.33;7.33;;;;;16.01;53.37;102118.84;5009839;28;45574;-83
2022/05/09 04:38:43;;;;;;;;;9.33;6.33;;;;;15.81;53.39;102089.25;5027174;28;45898;-84
2022/05/09 04:41:10;;;;;;;;;6.00;6.00;;;;;16.03;53.38;102132.19;5035829;28;45666;-83
2022/05/09 04:43:36;;;;;;;;;8.33;6.00;;;;;15.96;53.41;102128.03;5062366;28;45649;-81
2022/05/09 04:46:03;;;;;;;;;10.67;9.33;;;;;15.99;53.70;102131.47;5073583;28;45870;-81
2022/05/09 04:48:30;;;;;;;;;9.00;8.00;;;;;15.98;53.71;102144.97;5060083;28;45522;-81
2022/05/09 04:50:56;;;;;;;;;9.67;8.67;;;;;15.98;53.53;102140.47;5067052;28;46212;-81
2022/05/09 04:53:22;;;;;;;;;6.00;6.00;;;;;15.98;53.72;102143.16;5060182;28;45451;-81
2022/05/09 04:55:47;;;;;;;;;11.00;8.00;;;;;15.98;53.63;102140.47;5065411;28;45365;-82
2022/05/09 04:58:15;;;;;;;;;9.67;9.67;;;;;15.98;53.59;102142.28;5056464;28;45718;-81
2022/05/09 05:00:41;;;;;;;;;7.67;7.67;;;;;15.87;53.62;102118.53;5061333;28;45811;-83
2022/05/09 05:03:06;;;;;;;;;8.00;6.00;;;;;15.88;54.00;102123.00;5065471;28;45759;-84
2022/05/09 05:05:32;;;;;;;;;13.67;9.33;;;;;15.99;53.73;102136.84;5061379;28;46486;-84
2022/05/09 05:07:58;;;;;;;;;12.00;9.00;;;;;15.94;53.66;102124.53;5051960;28;45519;-83
2022/05/09 05:10:24;;;;;;;;;10.33;9.67;;;;;15.89;53.71;102105.03;5056779;28;45509;-83
2022/05/09 05:12:49;;;;;;;;;9.00;8.00;;;;;16.01;53.92;102124.22;5058017;28;45532;-82
2022/05/09 05:15:15;;;;;;;;;9.33;5.00;;;;;15.84;54.11;102097.19;5038763;28;45346;-83
2022/05/09 05:17:40;;;;;;;;;10.33;8.33;;;;;15.94;54.18;102111.09;5064593;28;45575;-83
2022/05/09 05:20:10;;;;;;;;;43.00;34.33;;;;;16.14;53.60;102142.50;5063789;28;45902;-83
2022/05/09 05:22:37;;;;;;;;;13.00;10.00;;;;;16.16;53.26;102140.59;5071083;28;45524;-82
2022/05/09 05:25:04;;;;;;;;;11.67;10.33;;;;;16.18;53.54;102141.41;5060125;28;45485;-81
2022/05/09 05:27:29;;;;;;;;;12.67;11.00;;;;;16.09;53.27;102123.88;5066528;28;45487;-81
2022/05/09 05:29:57;;;;;;;;;14.33;9.33;;;;;16.24;53.77;102136.59;5063807;28;45882;-81
2022/05/09 05:32:28;;;;;;;;;10.67;9.33;;;;;16.25;53.38;102134.81;5057459;28;45487;-82
2022/05/09 05:34:54;;;;;;;;;16.00;11.33;;;;;16.14;53.73;102115.59;5055903;28;45457;-80
2022/05/09 05:37:20;;;;;;;;;9.67;9.67;;;;;16.23;53.04;102128.63;5058783;28;45519;-81
2022/05/09 05:39:46;;;;;;;;;10.00;8.33;;;;;16.13;53.40;102113.81;5054154;28;45438;-85
2022/05/09 05:42:15;;;;;;;;;13.33;10.00;;;;;16.09;53.53;102106.84;5039145;28;45660;-82
2022/05/09 05:44:41;;;;;;;;;9.33;9.00;;;;;16.23;53.30;102121.41;5036824;28;45532;-83
2022/05/09 05:47:09;;;;;;;;;6.00;6.00;;;;;16.26;53.26;102120.41;5039659;28;45428;-80
2022/05/09 05:49:36;;;;;;;;;10.00;9.00;;;;;16.31;53.12;102125.56;5045797;28;46376;-79
2022/05/09 05:52:03;;;;;;;;;9.00;8.33;;;;;16.42;53.01;102152.88;5039359;28;45897;-80
2022/05/09 05:54:34;;;;;;;;;10.33;9.33;;;;;16.41;53.09;102141.25;5043014;28;45286;-80
2022/05/09 05:57:01;;;;;;;;;11.33;9.00;;;;;16.38;53.15;102129.72;5046203;28;45416;-79
2022/05/09 05:59:27;;;;;;;;;13.00;10.33;;;;;16.51;53.43;102148.91;5040109;28;45377;-80
2022/05/09 06:01:52;;;;;;;;;14.00;11.33;;;;;16.55;52.84;102145.09;5052139;28;45844;-80
2022/05/09 06:04:19;;;;;;;;;10.67;10.33;;;;;16.29;53.11;102104.13;5047209;28;45390;-80
2022/05/09 06:06:44;;;;;;;;;13.33;13.33;;;;;16.50;53.03;102134.53;5050945;28;45738;-79
2022/05/09 06:09:11;;;;;;;;;17.33;12.33;;;;;16.51;52.62;102130.91;5036163;28;46092;-80
2022/05/09 06:11:37;;;;;;;;;18.00;12.00;;;;;16.64;52.88;102152.75;5050759;28;45534;-80
2022/05/09 06:14:04;;;;;;;;;15.33;15.33;;;;;16.65;52.53;102147.31;5046279;28;45424;-80
2022/05/09 06:16:30;;;;;;;;;11.00;10.00;;;;;16.79;52.66;102156.59;5038276;28;46059;-79
2022/05/09 06:18:55;;;;;;;;;10.67;7.67;;;;;16.84;52.64;102152.72;5048187;28;46018;-80
2022/05/09 06:21:22;;;;;;;;;11.67;11.67;;;;;16.91;52.53;102163.22;5043041;28;45756;-78
2022/05/09 06:23:47;;;;;;;;;21.67;16.33;;;;;16.92;52.46;102157.72;5043819;28;45387;-80
2022/05/09 06:26:14;;;;;;;;;14.33;12.00;;;;;17.03;51.89;102152.72;5037914;28;46040;-79
2022/05/09 06:28:40;;;;;;;;;16.00;12.00;;;;;17.04;51.89;102148.19;5041112;28;46601;-80
2022/05/09 06:31:06;;;;;;;;;18.33;11.33;;;;;16.96;51.76;102131.53;5048292;28;45510;-79
2022/05/09 06:33:32;;;;;;;;;14.00;12.00;;;;;17.22;51.59;102162.59;5037995;28;45466;-79
2022/05/09 06:35:59;;;;;;;;;17.33;16.00;;;;;17.16;51.43;102141.31;5035156;28;45679;-79
2022/05/09 06:38:27;;;;;;;;;18.00;13.00;;;;;17.32;51.31;102161.19;5037544;28;45883;-79
2022/05/09 06:40:53;;;;;;;;;18.00;13.00;;;;;17.32;51.27;102157.63;5037168;28;45555;-79
2022/05/09 06:43:19;;;;;;;;;18.33;12.00;;;;;17.40;50.90;102164.38;5036881;28;45651;-79
2022/05/09 06:45:45;;;;;;;;;15.00;12.33;;;;;17.35;51.24;102150.28;5041347;28;46549;-79
2022/05/09 06:48:11;;;;;;;;;13.33;12.33;;;;;17.51;51.06;102169.22;5040642;28;46444;-79
2022/05/09 06:50:38;;;;;;;;;13.00;13.00;;;;;17.58;50.89;102167.09;5038436;28;45442;-79
2022/05/09 06:53:03;;;;;;;;;12.33;12.33;;;;;17.67;50.44;102183.69;5047095;28;45474;-79
2022/05/09 06:55:29;;;;;;;;;11.67;9.67;;;;;17.64;50.13;102156.00;5039226;28;45403;-79
2022/05/09 06:57:54;;;;;;;;;18.00;16.33;;;;;17.81;50.25;102174.06;5041572;28;45500;-79
2022/05/09 07:00:23;;;;;;;;;19.00;17.00;;;;;17.88;50.01;102173.66;5046331;28;45423;-79
2022/05/09 07:02:49;;;;;;;;;18.33;15.00;;;;;17.64;49.73;102118.25;5038703;28;45503;-79
2022/05/09 07:05:16;;;;;;;;;21.00;19.00;;;;;17.99;49.32;102169.56;5037610;28;45522;-79
2022/05/09 07:07:45;;;;;;;;;14.00;11.00;;;;;18.05;48.95;102169.22;5036700;28;46108;-79
2022/05/09 07:10:13;;;;;;;;;14.33;13.33;;;;;18.02;48.71;102155.88;5038015;28;45569;-79
2022/05/09 07:12:47;;;;;;;;;18.33;14.67;;;;;18.17;49.05;102173.97;5040460;28;45831;-79
2022/05/09 07:15:18;;;;;;;;;18.33;16.00;;;;;18.05;48.86;102142.22;5045101;28;46090;-80
2022/05/09 07:17:45;;;;;;;;;17.00;14.33;;;;;18.04;48.79;102138.66;5040202;28;45806;-79
2022/05/09 07:20:12;;;;;;;;;12.67;12.00;;;;;18.20;48.20;102143.25;5031265;28;45683;-79
2022/05/09 07:22:37;;;;;;;;;17.67;14.33;;;;;18.44;48.62;102174.31;5044563;28;45532;-79
2022/05/09 07:25:03;;;;;;;;;15.67;15.67;;;;;18.50;48.48;102170.44;5039379;28;45465;-79
2022/05/09 07:27:30;;;;;;;;;20.00;15.33;;;;;18.01;48.21;102081.31;5033691;28;45481;-83
2022/05/09 07:29:56;;;;;;;;;17.33;13.33;;;;;18.13;48.23;102088.75;5034246;28;45497;-80
2022/05/09 07:32:21;;;;;;;;;12.33;11.00;;;;;18.33;47.51;102117.31;5039180;28;45504;-80
2022/05/09 07:34:48;;;;;;;;;14.33;11.67;;;;;18.65;47.62;102145.25;5029633;28;45550;-81
2022/05/09 07:37:15;;;;;;;;;12.00;11.33;;;;;18.28;47.14;102074.38;5042069;28;45417;-81
2022/05/09 07:39:40;;;;;;;;;13.67;11.00;;;;;18.79;47.13;102146.38;5032943;28;45651;-81
2022/05/09 07:42:06;;;;;;;;;18.67;15.00;;;;;18.84;46.95;102147.84;5037341;28;45621;-82
2022/05/09 07:44:32;;;;;;;;;13.67;12.33;;;;;19.03;47.52;102172.00;5039859;28;45529;-82
2022/05/09 07:46:57;;;;;;;;;12.00;11.33;;;;;19.12;46.88;102166.06;5038060;28;45426;-82
2022/05/09 07:49:23;;;;;;;;;16.00;14.33;;;;;19.13;46.85;102156.16;5038595;28;45439;-82
2022/05/09 07:51:48;;;;;;;;;17.33;11.33;;;;;18.88;45.87;102108.03;5041025;28;45436;-81
2022/05/09 07:54:14;;;;;;;;;19.33;13.67;;;;;19.31;46.46;102156.91;5040637;28;45520;-82
2022/05/09 07:56:40;;;;;;;;;14.00;13.00;;;;;19.39;45.88;102157.34;5041010;28;46049;-82
2022/05/09 07:59:05;;;;;;;;;19.00;14.67;;;;;19.48;45.68;102158.63;5032014;28;45547;-81
2022/05/09 08:01:31;;;;;;;;;16.67;13.67;;;;;19.38;45.50;102125.84;5041900;28;46071;-81
2022/05/09 08:03:58;;;;;;;;;3.00;0.00;;;;;19.57;45.62;102145.44;5035113;28;45472;-81
2022/05/09 08:06:24;;;;;;;;;15.67;15.00;;;;;19.70;45.39;102158.28;5042900;28;46058;-81
2022/05/09 08:08:50;;;;;;;;;12.67;11.33;;;;;19.66;45.74;102133.19;5042711;28;45522;-80
2022/05/09 08:11:17;;;;;;;;;12.00;12.00;;;;;19.87;45.51;102146.44;5044753;28;45459;-80
2022/05/09 08:13:43;;;;;;;;;12.00;11.33;;;;;19.97;45.27;102144.88;5046749;28;45611;-80
2022/05/09 08:16:09;;;;;;;;;18.67;15.33;;;;;20.12;44.45;102154.78;5039591;28;45533;-80
2022/05/09 08:18:35;;;;;;;;;15.00;12.00;;;;;20.20;44.29;102155.19;5044896;28;45546;-80
2022/05/09 08:21:01;;;;;;;;;15.00;13.67;;;;;20.12;44.98;102121.44;5051105;28;45467;-80
2022/05/09 08:23:28;;;;;;;;;15.00;13.00;;;;;20.19;44.52;102112.84;5052657;28;45532;-81
2022/05/09 08:25:58;;;;;;;;;12.00;12.00;;;;;20.24;43.95;102109.84;5052609;28;47436;-81
2022/05/09 08:28:24;;;;;;;;;13.67;10.67;;;;;20.59;43.97;102147.41;5038631;28;45692;-80
2022/05/09 08:30:52;;;;;;;;;12.67;11.00;;;;;20.71;43.87;102152.03;5046872;28;45590;-80
2022/05/09 08:33:23;;;;;;;;;13.67;11.33;;;;;20.91;44.07;102150.75;5038976;28;45498;-81
2022/05/09 08:35:53;;;;;;;;;42.33;35.00;;;;;21.08;43.54;102138.81;5037356;28;45744;-81
2022/05/09 08:38:20;;;;;;;;;66.50;50.50;;;;;21.40;42.78;102152.97;5045736;28;45487;-81
2022/05/09 08:41:11;;;;;;;;;11.00;11.00;;;;;21.82;42.17;102144.72;5049310;28;45437;-81
2022/05/09 08:43:50;;;;;;;;;14.67;14.00;;;;;22.39;41.24;102141.66;5060977;28;45549;-81
2022/05/09 08:46:39;;;;;;;;;9.33;9.33;;;;;23.29;40.35;102136.84;5039110;28;47820;-81
2022/05/09 08:49:13;;;;;;;;;14.00;11.33;;;;;24.33;38.46;102141.56;5060195;28;45694;-81
2022/05/09 08:52:07;;;;;;;;;12.67;9.67;;;;;25.46;37.13;102135.97;5053425;28;45556;-81
2022/05/09 08:54:34;;;;;;;;;10.33;10.00;;;;;26.35;35.42;102100.94;5060240;28;45532;-81
2022/05/09 08:57:05;;;;;;;;;11.67;10.00;;;;;27.42;34.17;102127.72;5059546;28;45663;-81
2022/05/09 08:59:37;;;;;;;;;8.67;8.67;;;;;28.09;32.76;102071.13;5064918;28;45347;-82
2022/05/09 09:02:14;;;;;;;;;10.67;9.00;;;;;29.15;31.33;102096.31;5058840;28;45503;-82
2022/05/09 09:04:39;;;;;;;;;11.00;11.00;;;;;30.02;30.01;102094.66;5044756;28;45626;-82
2022/05/09 09:07:07;;;;;;;;;13.00;11.00;;;;;30.88;28.72;102119.41;5055624;28;47568;-81
2022/05/09 09:10:11;;;;;;;;;9.33;9.33;;;;;31.65;28.45;102115.53;5068597;28;45448;-81
2022/05/09 09:12:43;;;;;;;;;9.00;9.00;;;;;32.25;27.38;102111.53;5055294;28;45502;-82
2022/05/09 09:15:45;;;;;;;;;16.67;12.33;;;;;32.79;26.66;102108.91;5060235;28;45410;-81
2022/05/09 09:18:19;;;;;;;;;16.33;14.33;;;;;33.43;25.77;102101.28;5054787;28;45590;-81
2022/05/09 09:21:16;;;;;;;;;10.67;10.00;;;;;33.84;24.93;102072.41;5060625;28;45224;-82
2022/05/09 09:24:00;;;;;;;;;10.67;10.67;;;;;34.73;24.36;102097.34;5050483;28;45488;-81
2022/05/09 09:26:28;;;;;;;;;9.67;8.67;;;;;35.55;23.37;102104.41;5066772;28;45507;-82
2022/05/09 09:29:18;;;;;;;;;10.00;9.00;;;;;36.45;22.94;102101.88;5061088;28;45640;-82
2022/05/09 09:31:59;;;;;;;;;10.00;10.00;;;;;37.03;22.03;102088.44;5062229;28;45419;-81
2022/05/09 09:34:43;;;;;;;;;13.00;10.00;;;;;37.85;21.08;102108.66;5061175;28;45441;-82
2022/05/09 09:37:18;;;;;;;;;14.67;11.67;;;;;38.43;20.42;102103.22;5063688;28;45432;-83
2022/05/09 09:39:44;;;;;;;;;18.00;10.33;;;;;38.62;19.78;102065.22;5063103;28;46425;-84
2022/05/09 09:42:09;;;;;;;;;10.33;8.33;;;;;38.89;18.98;102064.19;5059889;28;45758;-83
2022/05/09 09:44:42;;;;;;;;;11.67;10.00;;;;;39.36;18.88;102103.81;5062104;28;45431;-83
2022/05/09 09:47:18;;;;;;;;;10.33;9.67;;;;;39.46;18.80;102088.31;5068241;28;45473;-83
2022/05/09 09:49:45;;;;;;;;;11.67;11.67;;;;;39.57;18.21;102080.28;5063076;28;45452;-82
2022/05/09 09:52:21;;;;;;;;;15.33;12.67;;;;;39.87;17.67;102098.03;5055025;28;45481;-82
2022/05/09 09:54:55;;;;;;;;;14.33;12.33;;;;;39.88;18.40;102099.78;5057709;28;45442;-83
2022/05/09 09:57:32;;;;;;;;;13.00;10.33;;;;;40.17;17.58;102054.56;5062705;28;45522;-83
2022/05/09 10:00:15;;;;;;;;;11.00;9.00;;;;;41.00;17.28;102084.69;5063861;28;46178;-83
2022/05/09 10:02:41;;;;;;;;;9.33;9.33;;;;;41.57;16.72;102058.19;5051106;28;45787;-83
2022/05/09 10:05:14;;;;;;;;;8.67;8.67;;;;;42.35;16.23;102079.31;5061843;28;45322;-82
2022/05/09 10:07:43;;;;;;;;;9.00;9.00;;;;;42.99;15.11;102056.78;5067909;28;45569;-82
2022/05/09 10:10:18;;;;;;;;;10.33;8.00;;;;;44.10;14.43;102089.81;5060625;28;46295;-82
2022/05/09 10:12:49;;;;;;;;;12.00;10.67;;;;;44.93;14.38;102072.00;5062618;28;45365;-82
2022/05/09 10:15:28;;;;;;;;;10.00;7.00;;;;;45.90;12.93;102079.28;5063764;28;45821;-83
2022/05/09 10:17:55;;;;;;;;;7.00;7.00;;;;;46.66;12.21;102057.34;5044712;28;45367;-83
2022/05/09 10:20:23;;;;;;;;;10.33;7.67;;;;;47.55;11.38;102074.97;5064066;28;46418;-83
2022/05/09 10:25:36;;;;;;;;;8.00;7.67;;;;;48.89;10.69;102053.47;5066873;28;45420;-83
2022/05/09 10:28:12;;;;;;;;;7.67;7.67;;;;;49.76;10.25;102071.72;5055358;28;45563;-83
2022/05/09 10:30:42;;;;;;;;;11.00;8.33;;;;;50.36;9.80;102055.13;5044786;28;48364;-83
2022/05/09 10:33:17;;;;;;;;;8.00;8.00;;;;;50.92;9.45;102069.66;5069688;28;45310;-83
2022/05/09 10:35:46;;;;;;;;;7.33;7.00;;;;;51.03;9.15;102068.34;5056065;28;45344;-83
2022/05/09 10:38:17;;;;;;;;;5.33;4.33;;;;;51.17;8.81;102066.41;5046143;28;45460;-83
2022/05/09 10:41:03;;;;;;;;;8.00;8.00;;;;;51.22;9.10;102022.84;5066002;28;45352;-84
2022/05/09 10:43:51;;;;;;;;;10.00;8.00;;;;;51.80;9.03;102067.81;5058922;28;45449;-83
2022/05/09 10:46:20;;;;;;;;;7.33;6.33;;;;;51.98;8.71;102053.78;5038665;28;45961;-83
2022/05/09 10:48:54;;;;;;;;;5.00;5.00;;;;;52.03;8.31;102057.38;5055738;28;45607;-84
2022/05/09 10:51:32;;;;;;;;;8.00;6.00;;;;;52.06;8.36;102041.69;5071364;27;46284;-84
2022/05/09 10:54:10;;;;;;;;;7.67;6.00;;;;;52.11;8.11;102050.97;5060001;28;45594;-83
2022/05/09 10:56:49;;;;;;;;;8.33;7.00;;;;;51.89;8.32;102046.00;5062313;28;45632;-82
2022/05/09 10:59:25;;;;;;;;;10.00;9.67;;;;;51.68;8.44;102041.84;5062466;28;45500;-83
2022/05/09 11:02:00;;;;;;;;;8.33;7.00;;;;;51.42;8.33;102050.06;5062069;28;45516;-83
2022/05/09 11:04:26;;;;;;;;;8.33;7.67;;;;;50.81;8.33;102038.59;5064330;28;45484;-83
2022/05/09 11:07:41;;;;;;;;;10.00;9.33;;;;;49.17;8.89;102048.19;5046134;28;45565;-83
2022/05/09 11:10:12;;;;;;;;;5.67;5.67;;;;;46.26;10.42;102031.53;5053724;28;45450;-82
2022/05/09 11:12:52;;;;;;;;;8.33;7.00;;;;;43.78;11.67;102037.06;5061583;27;46261;-82
2022/05/09 11:15:26;;;;;;;;;7.67;7.67;;;;;41.80;13.60;102018.13;5064776;28;45453;-83
2022/05/09 11:18:09;;;;;;;;;8.67;6.33;;;;;40.37;14.51;102009.63;5045411;28;46533;-83
2022/05/09 11:20:53;;;;;;;;;9.67;9.33;;;;;39.23;15.59;101979.25;5064682;28;45633;-83
2022/05/09 11:23:43;;;;;;;;;9.67;8.67;;;;;38.17;16.00;101922.28;5064572;28;46422;-83
2022/05/09 11:26:29;;;;;;;;;12.67;7.67;;;;;38.27;16.50;102022.06;5062875;28;45396;-83
2022/05/09 11:29:02;;;;;;;;;8.00;7.00;;;;;37.84;16.71;102026.25;5062735;28;45548;-83
2022/05/09 11:31:49;;;;;;;;;11.33;11.00;;;;;37.43;17.59;102021.75;5065781;28;45609;-83
2022/05/09 11:34:38;;;;;;;;;11.33;9.67;;;;;37.00;17.35;102019.38;5057984;27;46532;-83
2022/05/09 11:37:21;;;;;;;;;10.00;10.00;;;;;36.56;17.65;102017.97;5063321;27;45508;-84
2022/05/09 11:40:16;;;;;;;;;10.33;8.67;;;;;36.14;18.40;101981.91;5061356;28;45450;-84